Vail Spirit — C6BQ8 — position and weather

sailwx.info

Track history (hours):
 
Tides and Currents Weather Stations Pressure Air Temp Water Temp Dewpoint Dewpoint Depression Visibility Wind Speed Wind Dir Waves Ship Positions

Vail Spirit

Last reported at 2018-Jul-08 00:15 UTC. Time now 2018-Jul-22 04:55 UTC.
Position N 29°33' W 093°15'.
Warning: this ship's position is 14 days out of date.

Length 275 m; draft 9.9 m.

Type: Tanker. MMSI: 311000338.

Date/timePositionNaut miles runAvg speedWind from/ knotsBaromVisibWave heightAir tempDewpointWater temp
2018-Jul-08 00:15N 29°33' W 093°15'2 9.5
2018-Jul-08 00:00N 29°35' W 093°17'5 8.8
2018-Jul-07 23:26N 29°40' W 093°20'5 9.2
2018-Jul-07 22:55N 29°44' W 093°20'5 9.1
2018-Jul-07 22:22N 29°49' W 093°21'3 9.1
2018-Jul-07 22:01N 29°53' W 093°21'4 7.9
2018-Jul-07 21:30N 29°57' W 093°20'3 6.9
2018-Jul-07 21:01N 30°00' W 093°20'3 5.6
2018-Jul-07 20:30N 30°03' W 093°20'3 6.3
2018-Jul-07 20:01N 30°06' W 093°20'3 5.5
2018-Jul-07 19:30N 30°09' W 093°20'2 3.8
2018-Jul-07 19:01N 30°10' W 093°19'1 1.3
2018-Jul-07 18:30N 30°11' W 093°18'0 0.0
2018-Jul-07 18:00N 30°11' W 093°19'0 0.0
2018-Jul-07 17:30N 30°11' W 093°19'0 0.0
2018-Jul-07 17:00N 30°11' W 093°18'0 0.0
2018-Jul-07 16:30N 30°11' W 093°18'0 0.0
2018-Jul-07 16:00N 30°11' W 093°19'0 0.0
2018-Jul-07 15:30N 30°11' W 093°18'0 0.0
2018-Jul-07 15:00N 30°11' W 093°18'0 0.0
2018-Jul-07 14:30N 30°11' W 093°18'0 0.0
2018-Jul-07 13:54N 30°11' W 093°18'0 0.0
2018-Jul-07 13:30N 30°11' W 093°19'0 0.0
2018-Jul-07 13:00N 30°11' W 093°18'0 0.0
2018-Jul-07 12:30N 30°11' W 093°18'0 0.0
2018-Jul-07 12:00N 30°11' W 093°18'0 0.0
2018-Jul-07 11:30N 30°11' W 093°19'0 0.0
2018-Jul-07 11:00N 30°11' W 093°19'0 0.0
2018-Jul-07 10:30N 30°11' W 093°19'0 0.0
2018-Jul-07 10:00N 30°11' W 093°19'0 0.0
2018-Jul-07 09:30N 30°11' W 093°19'0 0.0
2018-Jul-07 08:57N 30°11' W 093°18'0 0.0
2018-Jul-07 08:30N 30°11' W 093°18'0 0.0
2018-Jul-07 08:00N 30°11' W 093°19'0 0.0
2018-Jul-07 07:30N 30°11' W 093°18'0 0.0
2018-Jul-07 07:00N 30°11' W 093°18'0 0.0
2018-Jul-07 06:30N 30°11' W 093°18'0 0.0
2018-Jul-07 06:00N 30°11' W 093°18'0 0.1
2018-Jul-07 05:31N 30°11' W 093°18'1 2.5
2018-Jul-07 05:00N 30°10' W 093°19'0 0.9
2018-Jul-07 04:29N 30°10' W 093°20'0 0.0
2018-Jul-07 04:00N 30°10' W 093°20'0 0.0
2018-Jul-07 03:30N 30°10' W 093°20'0 0.0
2018-Jul-07 03:00N 30°10' W 093°20'0 0.0
2018-Jul-07 02:30N 30°10' W 093°20'0 0.0
2018-Jul-07 02:00N 30°10' W 093°20'0 0.0
2018-Jul-07 01:30N 30°10' W 093°20'0 0.0
2018-Jul-07 01:00N 30°10' W 093°20'0 0.0
2018-Jul-07 00:30N 30°10' W 093°20'0 0.0
2018-Jul-07 00:00N 30°10' W 093°20'0 0.0
2018-Jul-06 23:30N 30°10' W 093°20'0 0.0
2018-Jul-06 23:00N 30°10' W 093°20'0 0.0
2018-Jul-06 22:30N 30°10' W 093°20'0 0.0
2018-Jul-06 22:00N 30°09' W 093°20'0 0.0
2018-Jul-06 21:30N 30°10' W 093°20'0 0.0
2018-Jul-06 21:00N 30°09' W 093°20'0 0.0
2018-Jul-06 20:30N 30°10' W 093°20'0 0.0
2018-Jul-06 20:00N 30°09' W 093°20'0 0.0
2018-Jul-06 19:30N 30°10' W 093°20'0 0.0
2018-Jul-06 19:00N 30°09' W 093°20'0 0.0
2018-Jul-06 18:30N 30°10' W 093°20'0 0.0
2018-Jul-06 18:00N 30°10' W 093°20'0 0.0
2018-Jul-06 17:30N 30°09' W 093°20'0 0.0
2018-Jul-06 17:00N 30°10' W 093°20'0 0.0
2018-Jul-06 16:30N 30°10' W 093°20'0 0.0
2018-Jul-06 16:00N 30°10' W 093°20'0 0.0
2018-Jul-06 15:30N 30°10' W 093°20'0 0.0
2018-Jul-06 15:00N 30°10' W 093°20'0 0.0
2018-Jul-06 14:30N 30°10' W 093°20'0 0.0
2018-Jul-06 14:00N 30°10' W 093°20'0 0.0
2018-Jul-06 13:30N 30°09' W 093°20'0 0.0
2018-Jul-06 13:00N 30°10' W 093°20'0 0.0
2018-Jul-06 12:30N 30°10' W 093°20'0 0.0
2018-Jul-06 11:57N 30°10' W 093°20'0 0.0
2018-Jul-06 11:30N 30°09' W 093°20'0 0.0
2018-Jul-06 11:00N 30°10' W 093°20'0 0.0
2018-Jul-06 10:30N 30°10' W 093°20'0 0.0
2018-Jul-06 10:00N 30°10' W 093°20'0 0.0
2018-Jul-06 09:30N 30°10' W 093°20'0 0.0
2018-Jul-06 09:00N 30°09' W 093°20'0 0.0
2018-Jul-06 08:30N 30°09' W 093°20'0 0.0
2018-Jul-06 08:00N 30°09' W 093°20'0 0.0
2018-Jul-06 07:30N 30°09' W 093°20'0 0.0
2018-Jul-06 07:00N 30°10' W 093°20'0 0.0
2018-Jul-06 06:30N 30°10' W 093°20'0 0.0
2018-Jul-06 06:00N 30°10' W 093°20'0 0.0
2018-Jul-06 05:30N 30°10' W 093°20'0 0.0
2018-Jul-06 05:00N 30°10' W 093°20'0 0.0
2018-Jul-06 04:30N 30°10' W 093°20'0 0.0
2018-Jul-06 04:00N 30°09' W 093°20'0 0.0
2018-Jul-06 03:30N 30°10' W 093°20'0 0.0
2018-Jul-06 03:00N 30°10' W 093°20'0 0.0
2018-Jul-06 02:30N 30°10' W 093°20'0 0.0
2018-Jul-06 02:00N 30°09' W 093°20'0 0.0
2018-Jul-06 01:30N 30°10' W 093°20'0 0.0
2018-Jul-06 01:00N 30°09' W 093°20'0 0.0
2018-Jul-06 00:30N 30°10' W 093°20'0 0.0
2018-Jul-06 00:00N 30°09' W 093°20'0 0.0
2018-Jul-05 23:30N 30°10' W 093°20'0 0.0
2018-Jul-05 23:00N 30°10' W 093°20'0 0.0
2018-Jul-05 22:30N 30°09' W 093°20'0 0.0
2018-Jul-05 22:00N 30°10' W 093°20'0 0.0
2018-Jul-05 21:30N 30°10' W 093°20'0 0.0
2018-Jul-05 21:00N 30°10' W 093°20'0 0.0
2018-Jul-05 20:30N 30°10' W 093°20'0 0.0
2018-Jul-05 19:57N 30°10' W 093°20'0 0.0
2018-Jul-05 19:30N 30°09' W 093°20'0 0.0
2018-Jul-05 19:00N 30°10' W 093°20'0 0.0
2018-Jul-05 18:30N 30°09' W 093°20'0 0.0
2018-Jul-05 18:00N 30°10' W 093°20'0 0.0
2018-Jul-05 17:30N 30°10' W 093°20'0 0.0
2018-Jul-05 17:00N 30°10' W 093°20'0 0.1
2018-Jul-05 16:31N 30°09' W 093°20'1 2.0
2018-Jul-05 16:01N 30°08' W 093°20'3 5.3
2018-Jul-05 15:31N 30°06' W 093°20'3 5.8
2018-Jul-05 15:01N 30°03' W 093°20'5 5.5
2018-Jul-05 14:01N 29°58' W 093°20'3 6.9
2018-Jul-05 13:30N 29°54' W 093°21'4 7.4
2018-Jul-05 13:01N 29°50' W 093°21'4 7.8
2018-Jul-05 12:31N 29°47' W 093°21'4 8.5
2018-Jul-05 12:01N 29°42' W 093°20'4 8.5
2018-Jul-05 11:31N 29°38' W 093°19'5 9.4
2018-Jul-05 11:01N 29°34' W 093°16'5 9.2
2018-Jul-05 10:27N 29°30' W 093°13'4 9.8
2018-Jul-05 10:00N 29°25' W 093°13'55 8.2
2018-Jul-05 03:15N 28°31' W 093°25'3 9.8
2018-Jul-05 02:58N 28°31' W 093°28'10 9.6
2018-Jul-05 01:56N 28°31' W 093°39'5 9.5
2018-Jul-05 01:27N 28°31' W 093°44'  
2018-Jul-01 23:33N 28°31' W 093°44'0 7.3
2018-Jul-01 23:30N 28°31' W 093°45'4 7.7
2018-Jul-01 22:58N 28°32' W 093°49'5 9.9
2018-Jul-01 22:28N 28°32' W 093°55'28 9.6
2018-Jul-01 19:34N 28°39' W 094°25'7 9.7
2018-Jul-01 18:49N 28°46' W 094°29'3 0.2
2018-Jul-01 06:20N 28°49' W 094°30'0 0.0
2018-Jul-01 05:50N 28°49' W 094°30'0 0.0
2018-Jul-01 05:26N 28°49' W 094°30'0 0.1
2018-Jul-01 04:20N 28°49' W 094°30'1 0.2
2018-Jul-01 00:04N 28°48' W 094°29'1 5.2
2018-Jun-30 23:58N 28°48' W 094°29'4 7.0
2018-Jun-30 23:27N 28°44' W 094°28'  
Track history (hours):
 
Tides and Currents Weather Stations Pressure Air Temp Water Temp Dewpoint Dewpoint Depression Visibility Wind Speed Wind Dir Waves Ship Positions

Vail Spirit

Last reported at 2018-Jul-08 00:15 UTC. Time now 2018-Jul-22 04:55 UTC.
Position N 29°33' W 093°15'.
Warning: this ship's position is 14 days out of date.

Length 275 m; draft 9.9 m.

Type: Tanker. MMSI: 311000338.

Date/timePositionNaut miles runAvg speedWind from/ knotsBaromVisibWave heightAir tempDewpointWater temp
2018-Jul-08 00:15N 29°33' W 093°15'2 9.5
2018-Jul-08 00:00N 29°35' W 093°17'5 8.8
2018-Jul-07 23:26N 29°40' W 093°20'5 9.2
2018-Jul-07 22:55N 29°44' W 093°20'5 9.1
2018-Jul-07 22:22N 29°49' W 093°21'3 9.1
2018-Jul-07 22:01N 29°53' W 093°21'4 7.9
2018-Jul-07 21:30N 29°57' W 093°20'3 6.9
2018-Jul-07 21:01N 30°00' W 093°20'3 5.6
2018-Jul-07 20:30N 30°03' W 093°20'3 6.3
2018-Jul-07 20:01N 30°06' W 093°20'3 5.5
2018-Jul-07 19:30N 30°09' W 093°20'2 3.8
2018-Jul-07 19:01N 30°10' W 093°19'1 1.3
2018-Jul-07 18:30N 30°11' W 093°18'0 0.0
2018-Jul-07 18:00N 30°11' W 093°19'0 0.0
2018-Jul-07 17:30N 30°11' W 093°19'0 0.0
2018-Jul-07 17:00N 30°11' W 093°18'0 0.0
2018-Jul-07 16:30N 30°11' W 093°18'0 0.0
2018-Jul-07 16:00N 30°11' W 093°19'0 0.0
2018-Jul-07 15:30N 30°11' W 093°18'0 0.0
2018-Jul-07 15:00N 30°11' W 093°18'0 0.0
2018-Jul-07 14:30N 30°11' W 093°18'0 0.0
2018-Jul-07 13:54N 30°11' W 093°18'0 0.0
2018-Jul-07 13:30N 30°11' W 093°19'0 0.0
2018-Jul-07 13:00N 30°11' W 093°18'0 0.0
2018-Jul-07 12:30N 30°11' W 093°18'0 0.0
2018-Jul-07 12:00N 30°11' W 093°18'0 0.0
2018-Jul-07 11:30N 30°11' W 093°19'0 0.0
2018-Jul-07 11:00N 30°11' W 093°19'0 0.0
2018-Jul-07 10:30N 30°11' W 093°19'0 0.0
2018-Jul-07 10:00N 30°11' W 093°19'0 0.0
2018-Jul-07 09:30N 30°11' W 093°19'0 0.0
2018-Jul-07 08:57N 30°11' W 093°18'0 0.0
2018-Jul-07 08:30N 30°11' W 093°18'0 0.0
2018-Jul-07 08:00N 30°11' W 093°19'0 0.0
2018-Jul-07 07:30N 30°11' W 093°18'0 0.0
2018-Jul-07 07:00N 30°11' W 093°18'0 0.0
2018-Jul-07 06:30N 30°11' W 093°18'0 0.0
2018-Jul-07 06:00N 30°11' W 093°18'0 0.1
2018-Jul-07 05:31N 30°11' W 093°18'1 2.5
2018-Jul-07 05:00N 30°10' W 093°19'0 0.9
2018-Jul-07 04:29N 30°10' W 093°20'0 0.0
2018-Jul-07 04:00N 30°10' W 093°20'0 0.0
2018-Jul-07 03:30N 30°10' W 093°20'0 0.0
2018-Jul-07 03:00N 30°10' W 093°20'0 0.0
2018-Jul-07 02:30N 30°10' W 093°20'0 0.0
2018-Jul-07 02:00N 30°10' W 093°20'0 0.0
2018-Jul-07 01:30N 30°10' W 093°20'0 0.0
2018-Jul-07 01:00N 30°10' W 093°20'0 0.0
2018-Jul-07 00:30N 30°10' W 093°20'0 0.0
2018-Jul-07 00:00N 30°10' W 093°20'0 0.0
2018-Jul-06 23:30N 30°10' W 093°20'0 0.0
2018-Jul-06 23:00N 30°10' W 093°20'0 0.0
2018-Jul-06 22:30N 30°10' W 093°20'0 0.0
2018-Jul-06 22:00N 30°09' W 093°20'0 0.0
2018-Jul-06 21:30N 30°10' W 093°20'0 0.0
2018-Jul-06 21:00N 30°09' W 093°20'0 0.0
2018-Jul-06 20:30N 30°10' W 093°20'0 0.0
2018-Jul-06 20:00N 30°09' W 093°20'0 0.0
2018-Jul-06 19:30N 30°10' W 093°20'0 0.0
2018-Jul-06 19:00N 30°09' W 093°20'0 0.0
2018-Jul-06 18:30N 30°10' W 093°20'0 0.0
2018-Jul-06 18:00N 30°10' W 093°20'0 0.0
2018-Jul-06 17:30N 30°09' W 093°20'0 0.0
2018-Jul-06 17:00N 30°10' W 093°20'0 0.0
2018-Jul-06 16:30N 30°10' W 093°20'0 0.0
2018-Jul-06 16:00N 30°10' W 093°20'0 0.0
2018-Jul-06 15:30N 30°10' W 093°20'0 0.0
2018-Jul-06 15:00N 30°10' W 093°20'0 0.0
2018-Jul-06 14:30N 30°10' W 093°20'0 0.0
2018-Jul-06 14:00N 30°10' W 093°20'0 0.0
2018-Jul-06 13:30N 30°09' W 093°20'0 0.0
2018-Jul-06 13:00N 30°10' W 093°20'0 0.0
2018-Jul-06 12:30N 30°10' W 093°20'0 0.0
2018-Jul-06 11:57N 30°10' W 093°20'0 0.0
2018-Jul-06 11:30N 30°09' W 093°20'0 0.0
2018-Jul-06 11:00N 30°10' W 093°20'0 0.0
2018-Jul-06 10:30N 30°10' W 093°20'0 0.0
2018-Jul-06 10:00N 30°10' W 093°20'0 0.0
2018-Jul-06 09:30N 30°10' W 093°20'0 0.0
2018-Jul-06 09:00N 30°09' W 093°20'0 0.0
2018-Jul-06 08:30N 30°09' W 093°20'0 0.0
2018-Jul-06 08:00N 30°09' W 093°20'0 0.0
2018-Jul-06 07:30N 30°09' W 093°20'0 0.0
2018-Jul-06 07:00N 30°10' W 093°20'0 0.0
2018-Jul-06 06:30N 30°10' W 093°20'0 0.0
2018-Jul-06 06:00N 30°10' W 093°20'0 0.0
2018-Jul-06 05:30N 30°10' W 093°20'0 0.0
2018-Jul-06 05:00N 30°10' W 093°20'0 0.0
2018-Jul-06 04:30N 30°10' W 093°20'0 0.0
2018-Jul-06 04:00N 30°09' W 093°20'0 0.0
2018-Jul-06 03:30N 30°10' W 093°20'0 0.0
2018-Jul-06 03:00N 30°10' W 093°20'0 0.0
2018-Jul-06 02:30N 30°10' W 093°20'0 0.0
2018-Jul-06 02:00N 30°09' W 093°20'0 0.0
2018-Jul-06 01:30N 30°10' W 093°20'0 0.0
2018-Jul-06 01:00N 30°09' W 093°20'0 0.0
2018-Jul-06 00:30N 30°10' W 093°20'0 0.0
2018-Jul-06 00:00N 30°09' W 093°20'0 0.0
2018-Jul-05 23:30N 30°10' W 093°20'0 0.0
2018-Jul-05 23:00N 30°10' W 093°20'0 0.0
2018-Jul-05 22:30N 30°09' W 093°20'0 0.0
2018-Jul-05 22:00N 30°10' W 093°20'0 0.0
2018-Jul-05 21:30N 30°10' W 093°20'0 0.0
2018-Jul-05 21:00N 30°10' W 093°20'0 0.0
2018-Jul-05 20:30N 30°10' W 093°20'0 0.0
2018-Jul-05 19:57N 30°10' W 093°20'0 0.0
2018-Jul-05 19:30N 30°09' W 093°20'0 0.0
2018-Jul-05 19:00N 30°10' W 093°20'0 0.0
2018-Jul-05 18:30N 30°09' W 093°20'0 0.0
2018-Jul-05 18:00N 30°10' W 093°20'0 0.0
2018-Jul-05 17:30N 30°10' W 093°20'0 0.0
2018-Jul-05 17:00N 30°10' W 093°20'0 0.1
2018-Jul-05 16:31N 30°09' W 093°20'1 2.0
2018-Jul-05 16:01N 30°08' W 093°20'3 5.3
2018-Jul-05 15:31N 30°06' W 093°20'3 5.8
2018-Jul-05 15:01N 30°03' W 093°20'5 5.5
2018-Jul-05 14:01N 29°58' W 093°20'3 6.9
2018-Jul-05 13:30N 29°54' W 093°21'4 7.4
2018-Jul-05 13:01N 29°50' W 093°21'4 7.8
2018-Jul-05 12:31N 29°47' W 093°21'4 8.5
2018-Jul-05 12:01N 29°42' W 093°20'4 8.5
2018-Jul-05 11:31N 29°38' W 093°19'5 9.4
2018-Jul-05 11:01N 29°34' W 093°16'5 9.2
2018-Jul-05 10:27N 29°30' W 093°13'4 9.8
2018-Jul-05 10:00N 29°25' W 093°13'55 8.2
2018-Jul-05 03:15N 28°31' W 093°25'3 9.8
2018-Jul-05 02:58N 28°31' W 093°28'10 9.6
2018-Jul-05 01:56N 28°31' W 093°39'5 9.5
2018-Jul-05 01:27N 28°31' W 093°44'  
2018-Jul-01 23:33N 28°31' W 093°44'0 7.3
2018-Jul-01 23:30N 28°31' W 093°45'4 7.7
2018-Jul-01 22:58N 28°32' W 093°49'5 9.9
2018-Jul-01 22:28N 28°32' W 093°55'28 9.6
2018-Jul-01 19:34N 28°39' W 094°25'7 9.7
2018-Jul-01 18:49N 28°46' W 094°29'3 0.2
2018-Jul-01 06:20N 28°49' W 094°30'0 0.0
2018-Jul-01 05:50N 28°49' W 094°30'0 0.0
2018-Jul-01 05:26N 28°49' W 094°30'0 0.1
2018-Jul-01 04:20N 28°49' W 094°30'1 0.2
2018-Jul-01 00:04N 28°48' W 094°29'1 5.2
2018-Jun-30 23:58N 28°48' W 094°29'4 7.0
2018-Jun-30 23:27N 28°44' W 094°28'  

Dump ship's entire track history